Wetterdaten: Dienstag, 05.06.2012
Datum Zeit Temperatur Luftfeuchte Regen Wind Richtung Richtung Taupunkt Windchill Windben
05.06.2012 00:00 9,5 C 76 % 0,0 l/m 2,4 km/h (1 Bft) NO 45 5,5 C 9,6 C 3,2 km/h (1 Bft)
05.06.2012 00:05 9,3 C 77 % 0,0 l/m 2,4 km/h (1 Bft) O-SO 112 5,5 C 9,6 C 6,0 km/h (2 Bft)
05.06.2012 00:10 9,8 C 77 % 0,0 l/m 2,3 km/h (1 Bft) N 360 6,0 C 9,9 C 1,8 km/h (1 Bft)
05.06.2012 00:15 10,0 C 76 % 0,0 l/m 2,1 km/h (1 Bft) O-SO 112 6,0 C 10,0 C 3,1 km/h (1 Bft)
05.06.2012 00:20 10,1 C 77 % 0,0 l/m 1,6 km/h (1 Bft) O-SO 112 6,3 C 10,1 C 4,7 km/h (1 Bft)
05.06.2012 00:25 10,1 C 77 % 0,0 l/m 1,8 km/h (1 Bft) O-SO 112 6,3 C 10,3 C 2,9 km/h (1 Bft)
05.06.2012 00:30 10,3 C 76 % 0,0 l/m 2,4 km/h (1 Bft) O-SO 112 6,3 C 10,4 C 2,3 km/h (1 Bft)
05.06.2012 00:35 10,3 C 76 % 0,0 l/m 2,1 km/h (1 Bft) O-NO 67 6,3 C 10,4 C 3,4 km/h (1 Bft)
05.06.2012 00:40 10,6 C 75 % 0,0 l/m 4,0 km/h (1 Bft) O-SO 112 6,4 C 10,5 C 12,2 km/h (2 Bft)
05.06.2012 00:45 10,8 C 74 % 0,0 l/m 6,4 km/h (2 Bft) SO 135 6,4 C 10,2 C 14,8 km/h (3 Bft)
05.06.2012 00:50 10,8 C 75 % 0,0 l/m 8,7 km/h (2 Bft) O 90 6,5 C 8,3 C 21,1 km/h (4 Bft)
05.06.2012 00:55 10,7 C 75 % 0,0 l/m 9,3 km/h (2 Bft) O-SO 112 6,5 C 7,6 C 6,1 km/h (2 Bft)
05.06.2012 01:00 10,5 C 76 % 0,0 l/m 9,0 km/h (2 Bft) O-SO 112 6,5 C 7,8 C 13,2 km/h (3 Bft)
05.06.2012 01:05 10,5 C 77 % 0,0 l/m 7,6 km/h (2 Bft) O-SO 112 6,6 C 8,9 C 5,0 km/h (1 Bft)
05.06.2012 01:10 10,5 C 77 % 0,0 l/m 5,3 km/h (1 Bft) W-SW 247 6,6 C 10,3 C 6,0 km/h (2 Bft)
05.06.2012 01:15 10,4 C 78 % 0,0 l/m 4,5 km/h (1 Bft) NO 45 6,7 C 10,3 C 6,4 km/h (2 Bft)
05.06.2012 01:20 10,2 C 78 % 0,0 l/m 5,0 km/h (1 Bft) O 90 6,5 C 10,0 C 12,4 km/h (3 Bft)
05.06.2012 01:25 10,2 C 78 % 0,0 l/m 5,3 km/h (1 Bft) O 90 6,5 C 9,9 C 2,9 km/h (1 Bft)
05.06.2012 01:30 10,2 C 78 % 0,0 l/m 6,6 km/h (2 Bft) O-SO 112 6,5 C 9,3 C 4,8 km/h (1 Bft)
05.06.2012 01:35 10,0 C 79 % 0,0 l/m 6,3 km/h (2 Bft) O 90 6,5 C 9,5 C 4,5 km/h (1 Bft)
05.06.2012 01:40 9,5 C 79 % 0,0 l/m 4,7 km/h (1 Bft) S 180 6,0 C 9,6 C 4,5 km/h (1 Bft)
05.06.2012 01:45 9,5 C 80 % 0,0 l/m 4,5 km/h (1 Bft) O-SO 112 6,2 C 9,6 C 3,9 km/h (1 Bft)
05.06.2012 01:50 9,8 C 80 % 0,0 l/m 4,7 km/h (1 Bft) O-SO 112 6,5 C 9,6 C 3,7 km/h (1 Bft)
05.06.2012 01:55 10,0 C 80 % 0,0 l/m 4,2 km/h (1 Bft) SO 135 6,7 C 9,9 C 6,6 km/h (2 Bft)
05.06.2012 02:00 10,1 C 80 % 0,0 l/m 4,3 km/h (1 Bft) O-SO 112 6,8 C 9,9 C 5,1 km/h (1 Bft)
05.06.2012 02:05 10,0 C 80 % 0,0 l/m 5,0 km/h (1 Bft) O 90 6,7 C 9,7 C 9,0 km/h (2 Bft)
05.06.2012 02:10 9,9 C 81 % 0,0 l/m 4,7 km/h (1 Bft) O-SO 112 6,8 C 9,7 C 7,9 km/h (2 Bft)
05.06.2012 02:15 9,8 C 81 % 0,0 l/m 5,5 km/h (1 Bft) SO 135 6,7 C 9,2 C 10,9 km/h (2 Bft)
05.06.2012 02:20 9,8 C 82 % 0,0 l/m 6,0 km/h (2 Bft) O-SO 112 6,9 C 8,9 C 5,0 km/h (1 Bft)
05.06.2012 02:25 9,7 C 82 % 0,0 l/m 5,5 km/h (1 Bft) O 90 6,8 C 9,1 C 3,5 km/h (1 Bft)
05.06.2012 02:30 9,7 C 82 % 0,0 l/m 4,2 km/h (1 Bft) SO 135 6,8 C 9,4 C 4,0 km/h (1 Bft)
05.06.2012 02:35 9,7 C 82 % 0,0 l/m 4,2 km/h (1 Bft) O-SO 112 6,8 C 9,6 C 8,9 km/h (2 Bft)
05.06.2012 02:40 9,7 C 82 % 0,0 l/m 4,5 km/h (1 Bft) O-SO 112 6,8 C 9,4 C 2,9 km/h (1 Bft)
05.06.2012 02:45 9,6 C 82 % 0,0 l/m 4,5 km/h (1 Bft) S-SW 202 6,7 C 9,4 C 7,1 km/h (2 Bft)
05.06.2012 02:50 9,7 C 81 % 0,0 l/m 4,5 km/h (1 Bft) SO 135 6,6 C 9,4 C 11,6 km/h (2 Bft)
05.06.2012 02:55 9,7 C 81 % 0,0 l/m 4,5 km/h (1 Bft) SO 135 6,6 C 9,4 C 5,6 km/h (1 Bft)
05.06.2012 03:00 9,4 C 81 % 0,0 l/m 4,2 km/h (1 Bft) O 90 6,3 C 9,6 C 4,7 km/h (1 Bft)
05.06.2012 03:05 9,3 C 82 % 0,0 l/m 3,7 km/h (1 Bft) O-NO 67 6,4 C 9,5 C 4,0 km/h (1 Bft)
05.06.2012 03:10 9,5 C 82 % 0,0 l/m 3,5 km/h (1 Bft) O 90 6,6 C 9,5 C 3,7 km/h (1 Bft)
05.06.2012 03:15 9,5 C 82 % 0,0 l/m 2,9 km/h (1 Bft) O-SO 112 6,6 C 9,4 C 2,6 km/h (1 Bft)
05.06.2012 03:19 9,5 C 82 % 0,0 l/m 3,2 km/h (1 Bft) SO 135 6,6 C 9,2 C 4,5 km/h (1 Bft)
05.06.2012 03:24 9,4 C 83 % 0,0 l/m 2,9 km/h (1 Bft) O-SO 112 6,7 C 9,2 C 4,5 km/h (1 Bft)
05.06.2012 03:29 9,4 C 83 % 0,0 l/m 2,6 km/h (1 Bft) SO 135 6,7 C 9,2 C 2,4 km/h (1 Bft)
05.06.2012 03:34 9,4 C 83 % 0,0 l/m 2,9 km/h (1 Bft) O-SO 112 6,7 C 9,2 C 2,3 km/h (1 Bft)
05.06.2012 03:39 9,1 C 85 % 0,7 l/m 2,4 km/h (1 Bft) O 90 6,7 C 8,9 C 0,0 km/h (0 Bft)
05.06.2012 03:44 8,8 C 86 % 0,0 l/m 0,8 km/h (0 Bft) O 90 6,6 C 8,6 C 3,7 km/h (1 Bft)
05.06.2012 03:49 8,7 C 87 % 0,0 l/m 0,3 km/h (0 Bft) N 360 6,7 C 8,5 C 0,0 km/h (0 Bft)
05.06.2012 03:54 8,6 C 87 % 0,0 l/m 0,3 km/h (0 Bft) N-NO 22 6,6 C 8,3 C 0,0 km/h (0 Bft)
05.06.2012 03:59 8,6 C 88 % 0,0 l/m 0,2 km/h (0 Bft) N-NO 22 6,7 C 8,3 C 0,0 km/h (0 Bft)
05.06.2012 04:04 8,6 C 88 % 0,0 l/m 0,0 km/h (0 Bft) NO 45 6,7 C 8,3 C 0,0 km/h (0 Bft)
05.06.2012 04:09 8,7 C 89 % 0,0 l/m 0,8 km/h (0 Bft) SO 135 7,0 C 8,3 C 6,6 km/h (2 Bft)
05.06.2012 04:14 8,6 C 89 % 0,7 l/m 5,6 km/h (1 Bft) O-SO 112 6,9 C 7,6 C 13,4 km/h (3 Bft)
05.06.2012 04:19 8,4 C 90 % 0,7 l/m 8,5 km/h (2 Bft) O-SO 112 6,9 C 5,1 C 15,9 km/h (3 Bft)
05.06.2012 04:24 8,2 C 90 % 0,0 l/m 8,9 km/h (2 Bft) O-SO 112 6,7 C 4,6 C 9,8 km/h (2 Bft)
05.06.2012 04:29 8,2 C 90 % 0,0 l/m 9,3 km/h (2 Bft) W-SW 247 6,7 C 4,1 C 6,9 km/h (2 Bft)
05.06.2012 04:34 8,1 C 90 % 0,7 l/m 8,2 km/h (2 Bft) SO 135 6,6 C 5,0 C 4,3 km/h (1 Bft)
05.06.2012 04:39 8,1 C 91 % 0,0 l/m 6,9 km/h (2 Bft) SO 135 6,7 C 6,3 C 13,2 km/h (3 Bft)
05.06.2012 04:44 8,0 C 91 % 0,7 l/m 6,9 km/h (2 Bft) SO 135 6,6 C 6,3 C 6,3 km/h (2 Bft)
05.06.2012 04:49 8,0 C 91 % 0,0 l/m 7,9 km/h (2 Bft) SO 135 6,6 C 5,2 C 8,9 km/h (2 Bft)
05.06.2012 04:54 8,0 C 91 % 0,0 l/m 6,4 km/h (2 Bft) O-SO 112 6,6 C 6,8 C 5,1 km/h (1 Bft)
05.06.2012 04:59 8,0 C 92 % 0,0 l/m 6,1 km/h (2 Bft) W 270 6,8 C 6,9 C 3,1 km/h (1 Bft)
05.06.2012 05:04 7,9 C 92 % 0,7 l/m 4,8 km/h (1 Bft) S-SW 202 6,7 C 7,3 C 4,0 km/h (1 Bft)
05.06.2012 05:09 7,9 C 92 % 0,0 l/m 4,8 km/h (1 Bft) SO 135 6,7 C 7,3 C 5,1 km/h (1 Bft)
05.06.2012 05:14 7,9 C 92 % 0,7 l/m 5,5 km/h (1 Bft) O-SO 112 6,7 C 7,0 C 10,6 km/h (2 Bft)
05.06.2012 05:19 7,8 C 92 % 0,0 l/m 6,4 km/h (2 Bft) SO 135 6,6 C 6,7 C 11,6 km/h (2 Bft)
05.06.2012 05:24 7,8 C 92 % 0,0 l/m 8,9 km/h (2 Bft) O-SO 112 6,6 C 4,0 C 12,7 km/h (3 Bft)
05.06.2012 05:29 7,8 C 92 % 0,0 l/m 8,4 km/h (2 Bft) SO 135 6,6 C 4,4 C 7,2 km/h (2 Bft)
05.06.2012 05:34 7,7 C 92 % 0,7 l/m 8,0 km/h (2 Bft) S-SO 157 6,5 C 4,8 C 12,6 km/h (3 Bft)
05.06.2012 05:39 7,7 C 92 % 0,0 l/m 8,4 km/h (2 Bft) SO 135 6,5 C 4,3 C 15,0 km/h (3 Bft)
05.06.2012 05:44 7,6 C 93 % 0,7 l/m 7,4 km/h (2 Bft) O-SO 112 6,5 C 5,3 C 11,7 km/h (2 Bft)
05.06.2012 05:49 7,4 C 92 % 0,0 l/m 8,0 km/h (2 Bft) S-SO 157 6,2 C 4,4 C 10,8 km/h (2 Bft)
05.06.2012 05:54 7,2 C 92 % 0,7 l/m 10,6 km/h (2 Bft) O-SO 112 6,0 C 1,8 C 11,3 km/h (2 Bft)
05.06.2012 05:59 7,1 C 92 % 0,0 l/m 10,8 km/h (2 Bft) S-SW 202 5,9 C 1,5 C 12,7 km/h (3 Bft)
05.06.2012 06:04 6,9 C 92 % 0,7 l/m 9,3 km/h (2 Bft) SO 135 5,7 C 2,7 C 8,0 km/h (2 Bft)
05.06.2012 06:09 6,9 C 92 % 0,0 l/m 8,7 km/h (2 Bft) S-SO 157 5,7 C 3,1 C 6,9 km/h (2 Bft)
05.06.2012 06:14 6,8 C 92 % 0,0 l/m 7,9 km/h (2 Bft) O-SO 112 5,6 C 3,7 C 18,7 km/h (3 Bft)
05.06.2012 06:19 6,8 C 92 % 0,0 l/m 8,2 km/h (2 Bft) O-SO 112 5,6 C 3,2 C 9,0 km/h (2 Bft)
05.06.2012 06:24 6,7 C 92 % 0,7 l/m 8,0 km/h (2 Bft) O 90 5,5 C 3,5 C 7,9 km/h (2 Bft)
05.06.2012 06:29 6,6 C 92 % 0,0 l/m 8,7 km/h (2 Bft) SO 135 5,4 C 2,7 C 7,4 km/h (2 Bft)
05.06.2012 06:34 6,6 C 92 % 0,0 l/m 9,2 km/h (2 Bft) O-SO 112 5,4 C 2,1 C 15,1 km/h (3 Bft)
05.06.2012 06:39 6,6 C 92 % 0,0 l/m 9,3 km/h (2 Bft) S-SO 157 5,4 C 1,8 C 13,2 km/h (3 Bft)
05.06.2012 06:44 6,5 C 92 % 0,0 l/m 8,9 km/h (2 Bft) O-SO 112 5,3 C 2,2 C 5,1 km/h (1 Bft)
05.06.2012 06:49 6,5 C 92 % 0,0 l/m 7,9 km/h (2 Bft) SO 135 5,3 C 3,3 C 4,8 km/h (1 Bft)
05.06.2012 06:54 6,5 C 92 % 0,0 l/m 7,6 km/h (2 Bft) S-SO 157 5,3 C 3,6 C 5,6 km/h (1 Bft)
05.06.2012 06:59 6,4 C 92 % 0,0 l/m 7,1 km/h (2 Bft) SO 135 5,2 C 4,2 C 9,7 km/h (2 Bft)
05.06.2012 07:04 6,4 C 92 % 0,0 l/m 7,2 km/h (2 Bft) S 180 5,2 C 4,0 C 8,5 km/h (2 Bft)
05.06.2012 07:09 6,3 C 92 % 0,0 l/m 8,5 km/h (2 Bft) NO 45 5,1 C 2,6 C 13,7 km/h (3 Bft)
05.06.2012 07:14 6,0 C 92 % 0,0 l/m 8,4 km/h (2 Bft) O-SO 112 4,8 C 2,4 C 10,8 km/h (2 Bft)
05.06.2012 07:19 5,9 C 93 % 0,0 l/m 7,4 km/h (2 Bft) S-SO 157 4,9 C 3,5 C 5,1 km/h (1 Bft)
05.06.2012 07:24 5,8 C 93 % 0,0 l/m 7,4 km/h (2 Bft) SO 135 4,8 C 3,3 C 12,6 km/h (3 Bft)
05.06.2012 07:29 5,8 C 93 % 0,0 l/m 7,6 km/h (2 Bft) SO 135 4,8 C 3,0 C 10,1 km/h (2 Bft)
05.06.2012 07:34 5,8 C 93 % 0,0 l/m 6,8 km/h (2 Bft) S 180 4,8 C 3,9 C 8,0 km/h (2 Bft)
05.06.2012 07:39 5,8 C 93 % 0,0 l/m 6,6 km/h (2 Bft) S-SO 157 4,8 C 4,2 C 10,1 km/h (2 Bft)
05.06.2012 07:44 5,7 C 93 % 0,0 l/m 7,4 km/h (2 Bft) SO 135 4,7 C 3,3 C 7,7 km/h (2 Bft)
05.06.2012 07:49 5,7 C 93 % 0,0 l/m 8,0 km/h (2 Bft) O-SO 112 4,7 C 2,7 C 10,6 km/h (2 Bft)
05.06.2012 07:54 5,7 C 92 % 0,0 l/m 7,1 km/h (2 Bft) S 180 4,5 C 3,7 C 9,3 km/h (2 Bft)
05.06.2012 07:59 5,7 C 92 % 0,0 l/m 6,9 km/h (2 Bft) O-SO 112 4,5 C 3,9 C 11,1 km/h (2 Bft)
05.06.2012 08:04 5,8 C 92 % 0,0 l/m 7,2 km/h (2 Bft) S-SO 157 4,6 C 3,6 C 10,9 km/h (2 Bft)
05.06.2012 08:09 5,7 C 91 % 0,0 l/m 7,9 km/h (2 Bft) SO 135 4,3 C 3,0 C 6,3 km/h (2 Bft)
05.06.2012 08:14 5,8 C 91 % 0,0 l/m 6,9 km/h (2 Bft) O-SO 112 4,4 C 4,2 C 10,3 km/h (2 Bft)
05.06.2012 08:19 5,8 C 91 % 0,0 l/m 5,8 km/h (2 Bft) SO 135 4,4 C 4,9 C 5,1 km/h (1 Bft)
05.06.2012 08:24 5,9 C 91 % 0,0 l/m 5,1 km/h (1 Bft) O 90 4,5 C 5,2 C 5,0 km/h (1 Bft)
05.06.2012 08:29 5,8 C 91 % 0,0 l/m 4,5 km/h (1 Bft) SO 135 4,4 C 5,4 C 5,3 km/h (1 Bft)
05.06.2012 08:34 5,7 C 90 % 0,0 l/m 5,6 km/h (1 Bft) O-SO 112 4,2 C 5,0 C 10,5 km/h (2 Bft)
05.06.2012 08:39 5,6 C 89 % 0,0 l/m 5,5 km/h (1 Bft) SO 135 3,9 C 5,1 C 7,6 km/h (2 Bft)
05.06.2012 08:44 5,5 C 89 % 0,0 l/m 5,3 km/h (1 Bft) S 180 3,8 C 4,9 C 9,5 km/h (2 Bft)
05.06.2012 08:49 5,6 C 89 % 0,0 l/m 5,6 km/h (1 Bft) S-SO 157 3,9 C 4,8 C 7,4 km/h (2 Bft)
05.06.2012 08:54 5,6 C 89 % 0,0 l/m 5,3 km/h (1 Bft) O-SO 112 3,9 C 4,9 C 4,8 km/h (1 Bft)
05.06.2012 08:59 5,7 C 89 % 0,0 l/m 4,2 km/h (1 Bft) SO 135 4,0 C 5,4 C 3,5 km/h (1 Bft)
05.06.2012 09:04 5,8 C 89 % 0,0 l/m 3,9 km/h (1 Bft) O-SO 112 4,1 C 5,7 C 6,4 km/h (2 Bft)
05.06.2012 09:09 5,8 C 89 % 0,0 l/m 4,3 km/h (1 Bft) O-SO 112 4,1 C 5,6 C 4,3 km/h (1 Bft)
05.06.2012 09:14 6,0 C 89 % 0,0 l/m 4,5 km/h (1 Bft) N 360 4,3 C 5,7 C 2,6 km/h (1 Bft)
05.06.2012 09:19 6,1 C 89 % 0,0 l/m 4,0 km/h (1 Bft) SO 135 4,4 C 6,1 C 2,9 km/h (1 Bft)
05.06.2012 09:24 6,4 C 89 % 0,0 l/m 2,7 km/h (1 Bft) O-SO 112 4,7 C 6,7 C 3,4 km/h (1 Bft)
05.06.2012 09:29 6,4 C 89 % 0,0 l/m 2,6 km/h (1 Bft) SO 135 4,7 C 6,9 C 8,4 km/h (2 Bft)
05.06.2012 09:34 6,6 C 89 % 0,0 l/m 3,4 km/h (1 Bft) O-SO 112 4,9 C 7,0 C 2,7 km/h (1 Bft)
05.06.2012 09:39 6,7 C 88 % 0,0 l/m 3,4 km/h (1 Bft) O-SO 112 4,9 C 7,1 C 3,4 km/h (1 Bft)
05.06.2012 09:44 6,8 C 88 % 0,0 l/m 3,1 km/h (1 Bft) S 180 5,0 C 7,3 C 4,8 km/h (1 Bft)
05.06.2012 09:49 6,7 C 88 % 0,0 l/m 3,4 km/h (1 Bft) O 90 4,9 C 7,3 C 2,9 km/h (1 Bft)
05.06.2012 09:54 6,5 C 88 % 0,0 l/m 3,5 km/h (1 Bft) SO 135 4,7 C 7,2 C 5,8 km/h (2 Bft)
05.06.2012 09:59 6,7 C 87 % 0,0 l/m 3,1 km/h (1 Bft) S-SW 202 4,7 C 7,2 C 4,5 km/h (1 Bft)
05.06.2012 10:04 6,9 C 88 % 0,0 l/m 3,2 km/h (1 Bft) O 90 5,1 C 7,2 C 2,7 km/h (1 Bft)
05.06.2012 10:09 6,9 C 88 % 0,0 l/m 3,1 km/h (1 Bft) SO 135 5,1 C 7,3 C 5,8 km/h (2 Bft)
05.06.2012 10:14 7,0 C 87 % 0,0 l/m 3,1 km/h (1 Bft) O-SO 112 5,0 C 7,3 C 4,7 km/h (1 Bft)
05.06.2012 10:19 6,9 C 88 % 0,0 l/m 3,2 km/h (1 Bft) O-SO 112 5,1 C 7,3 C 3,4 km/h (1 Bft)
05.06.2012 10:24 7,1 C 87 % 0,0 l/m 2,9 km/h (1 Bft) O-SO 112 5,1 C 7,4 C 2,6 km/h (1 Bft)
05.06.2012 10:29 6,9 C 87 % 0,0 l/m 3,2 km/h (1 Bft) N 360 4,9 C 7,4 C 2,4 km/h (1 Bft)
05.06.2012 10:34 7,0 C 87 % 0,0 l/m 2,9 km/h (1 Bft) SO 135 5,0 C 7,4 C 3,7 km/h (1 Bft)
05.06.2012 10:39 7,1 C 87 % 0,0 l/m 2,1 km/h (1 Bft) SO 135 5,1 C 7,4 C 2,1 km/h (1 Bft)
05.06.2012 10:44 7,3 C 88 % 0,0 l/m 2,3 km/h (1 Bft) NO 45 5,4 C 7,6 C 2,3 km/h (1 Bft)
05.06.2012 10:49 7,3 C 88 % 0,0 l/m 2,6 km/h (1 Bft) SO 135 5,4 C 7,6 C 6,6 km/h (2 Bft)
05.06.2012 10:54 7,4 C 87 % 0,0 l/m 2,7 km/h (1 Bft) SO 135 5,4 C 7,7 C 3,2 km/h (1 Bft)
05.06.2012 10:59 7,6 C 87 % 0,0 l/m 3,1 km/h (1 Bft) SO 135 5,6 C 7,9 C 4,3 km/h (1 Bft)
05.06.2012 11:04 8,0 C 86 % 0,0 l/m 2,6 km/h (1 Bft) S-SO 157 5,8 C 8,4 C 4,3 km/h (1 Bft)
05.06.2012 11:09 8,1 C 84 % 0,0 l/m 2,7 km/h (1 Bft) SO 135 5,6 C 8,8 C 5,8 km/h (2 Bft)
05.06.2012 11:14 9,1 C 82 % 0,0 l/m 3,5 km/h (1 Bft) S 180 6,2 C 9,6 C 5,1 km/h (1 Bft)
05.06.2012 11:19 10,2 C 80 % 0,0 l/m 3,4 km/h (1 Bft) S 180 6,9 C 10,9 C 3,9 km/h (1 Bft)
05.06.2012 11:24 10,3 C 76 % 0,0 l/m 4,2 km/h (1 Bft) S 180 6,3 C 11,7 C 5,8 km/h (2 Bft)
05.06.2012 11:29 10,0 C 75 % 0,0 l/m 4,8 km/h (1 Bft) O-SO 112 5,8 C 12,1 C 7,1 km/h (2 Bft)
05.06.2012 11:34 9,9 C 76 % 0,0 l/m 4,5 km/h (1 Bft) O-SO 112 5,9 C 12,0 C 4,5 km/h (1 Bft)
05.06.2012 11:39 10,2 C 76 % 0,0 l/m 3,5 km/h (1 Bft) N 360 6,2 C 12,0 C 0,0 km/h (0 Bft)
05.06.2012 11:44 10,5 C 75 % 0,0 l/m 3,2 km/h (1 Bft) SO 135 6,3 C 12,6 C 6,8 km/h (2 Bft)
05.06.2012 11:49 10,2 C 75 % 0,0 l/m 4,0 km/h (1 Bft) S-SO 157 6,0 C 12,4 C 4,3 km/h (1 Bft)
05.06.2012 11:54 10,4 C 73 % 0,0 l/m 5,1 km/h (1 Bft) SO 135 5,8 C 11,8 C 4,8 km/h (1 Bft)
05.06.2012 11:59 10,4 C 74 % 0,0 l/m 4,2 km/h (1 Bft) O 90 6,0 C 12,3 C 4,2 km/h (1 Bft)
05.06.2012 12:04 10,7 C 73 % 0,0 l/m 2,9 km/h (1 Bft) N 360 6,1 C 12,5 C 0,0 km/h (0 Bft)
05.06.2012 12:09 11,2 C 71 % 0,0 l/m 2,4 km/h (1 Bft) SO 135 6,1 C 13,5 C 3,4 km/h (1 Bft)
05.06.2012 12:14 11,3 C 72 % 0,0 l/m 1,4 km/h (1 Bft) S 180 6,4 C 14,6 C 3,1 km/h (1 Bft)
05.06.2012 12:19 11,5 C 68 % 0,0 l/m 1,4 km/h (1 Bft) S 180 5,8 C 14,8 C 2,6 km/h (1 Bft)
05.06.2012 12:24 12,3 C 72 % 0,0 l/m 3,7 km/h (1 Bft) SO 135 7,4 C 14,9 C 6,1 km/h (2 Bft)
05.06.2012 12:29 12,3 C 67 % 0,0 l/m 5,5 km/h (1 Bft) O-SO 112 6,4 C 14,8 C 6,4 km/h (2 Bft)
05.06.2012 12:34 12,1 C 67 % 0,0 l/m 5,1 km/h (1 Bft) SO 135 6,2 C 14,7 C 10,9 km/h (2 Bft)
05.06.2012 12:39 12,8 C 67 % 0,0 l/m 4,7 km/h (1 Bft) NO 45 6,8 C 14,6 C 4,3 km/h (1 Bft)
05.06.2012 12:44 12,9 C 66 % 0,0 l/m 5,3 km/h (1 Bft) O-SO 112 6,7 C 15,2 C 5,8 km/h (2 Bft)
05.06.2012 12:49 12,1 C 67 % 0,0 l/m 5,3 km/h (1 Bft) O 90 6,2 C 14,8 C 7,4 km/h (2 Bft)
05.06.2012 12:54 11,7 C 68 % 0,0 l/m 5,0 km/h (1 Bft) S-SO 157 6,0 C 14,1 C 8,0 km/h (2 Bft)
05.06.2012 12:59 12,1 C 72 % 0,0 l/m 3,9 km/h (1 Bft) W-SW 247 7,2 C 13,9 C 4,7 km/h (1 Bft)
05.06.2012 13:04 12,0 C 73 % 0,0 l/m 2,6 km/h (1 Bft) O-NO 67 7,3 C 13,8 C 1,8 km/h (1 Bft)
05.06.2012 13:09 12,4 C 72 % 0,0 l/m 2,3 km/h (1 Bft) O-SO 112 7,5 C 14,4 C 2,3 km/h (1 Bft)
05.06.2012 13:14 12,1 C 72 % 0,0 l/m 2,6 km/h (1 Bft) W-SW 247 7,2 C 14,1 C 2,7 km/h (1 Bft)
05.06.2012 13:19 11,7 C 69 % 0,0 l/m 2,7 km/h (1 Bft) NW 315 6,2 C 13,8 C 0,0 km/h (0 Bft)
05.06.2012 13:24 11,9 C 73 % 0,0 l/m 1,8 km/h (1 Bft) O-SO 112 7,2 C 14,3 C 3,4 km/h (1 Bft)
05.06.2012 13:29 12,0 C 73 % 0,0 l/m 1,6 km/h (1 Bft) O 90 7,3 C 14,1 C 2,3 km/h (1 Bft)
05.06.2012 13:34 12,3 C 74 % 0,0 l/m 1,8 km/h (1 Bft) O-SO 112 7,8 C 14,6 C 3,4 km/h (1 Bft)
05.06.2012 13:39 12,2 C 72 % 0,0 l/m 2,1 km/h (1 Bft) O-SO 112 7,3 C 14,4 C 7,9 km/h (2 Bft)
05.06.2012 13:44 12,4 C 69 % 0,0 l/m 3,5 km/h (1 Bft) SO 135 6,9 C 14,0 C 5,1 km/h (1 Bft)
05.06.2012 13:49 13,4 C 68 % 0,0 l/m 4,3 km/h (1 Bft) S-SW 202 7,6 C 14,5 C 3,5 km/h (1 Bft)
05.06.2012 13:54 12,0 C 67 % 0,0 l/m 5,0 km/h (1 Bft) SO 135 6,1 C 14,2 C 4,3 km/h (1 Bft)
05.06.2012 13:59 11,8 C 67 % 0,0 l/m 5,1 km/h (1 Bft) S-SO 157 5,9 C 13,7 C 9,3 km/h (2 Bft)
05.06.2012 14:04 13,2 C 69 % 0,0 l/m 4,2 km/h (1 Bft) SO 135 7,6 C 13,5 C 4,8 km/h (1 Bft)
05.06.2012 14:09 14,4 C 62 % 0,0 l/m 4,5 km/h (1 Bft) SO 135 7,2 C 14,6 C 6,3 km/h (2 Bft)
05.06.2012 14:14 15,4 C 58 % 0,0 l/m 5,8 km/h (2 Bft) S-SW 202 7,2 C 16,2 C 9,5 km/h (2 Bft)
05.06.2012 14:19 14,4 C 59 % 0,0 l/m 5,8 km/h (2 Bft) S-SO 157 6,5 C 17,0 C 4,2 km/h (1 Bft)
05.06.2012 14:24 13,8 C 63 % 0,0 l/m 4,7 km/h (1 Bft) S-SO 157 6,9 C 16,2 C 3,2 km/h (1 Bft)
05.06.2012 14:29 13,4 C 60 % 0,0 l/m 3,7 km/h (1 Bft) O-SO 112 5,8 C 15,9 C 6,1 km/h (2 Bft)
05.06.2012 14:34 13,7 C 61 % 0,0 l/m 3,4 km/h (1 Bft) S 180 6,3 C 15,6 C 8,7 km/h (2 Bft)
05.06.2012 14:39 13,4 C 60 % 0,0 l/m 4,3 km/h (1 Bft) SO 135 5,8 C 15,3 C 9,5 km/h (2 Bft)
05.06.2012 14:44 13,6 C 63 % 0,0 l/m 4,2 km/h (1 Bft) W-NW 292 6,7 C 15,0 C 2,4 km/h (1 Bft)
05.06.2012 14:49 13,8 C 59 % 0,0 l/m 4,2 km/h (1 Bft) S-SW 202 5,9 C 15,4 C 5,3 km/h (1 Bft)
05.06.2012 14:54 14,1 C 58 % 0,0 l/m 4,3 km/h (1 Bft) O-SO 112 6,0 C 16,0 C 5,8 km/h (2 Bft)
05.06.2012 14:59 15,0 C 59 % 0,0 l/m 4,3 km/h (1 Bft) S-SO 157 7,1 C 15,7 C 2,4 km/h (1 Bft)
05.06.2012 15:04 14,5 C 56 % 0,0 l/m 4,3 km/h (1 Bft) S-SO 157 5,8 C 16,5 C 3,4 km/h (1 Bft)
05.06.2012 15:09 14,2 C 57 % 0,0 l/m 4,0 km/h (1 Bft) S 180 5,8 C 16,4 C 6,8 km/h (2 Bft)
05.06.2012 15:14 13,5 C 58 % 0,0 l/m 4,5 km/h (1 Bft) S 180 5,4 C 15,2 C 2,6 km/h (1 Bft)
05.06.2012 15:19 13,6 C 58 % 0,0 l/m 4,5 km/h (1 Bft) W-SW 247 5,5 C 15,0 C 4,3 km/h (1 Bft)
05.06.2012 15:24 14,1 C 58 % 0,0 l/m 2,4 km/h (1 Bft) W-SW 247 6,0 C 15,7 C 3,4 km/h (1 Bft)
05.06.2012 15:29 14,6 C 57 % 0,0 l/m 1,9 km/h (1 Bft) S 180 6,2 C 16,1 C 2,9 km/h (1 Bft)
05.06.2012 15:34 14,3 C 58 % 0,0 l/m 1,9 km/h (1 Bft) S-SO 157 6,2 C 16,4 C 0,0 km/h (0 Bft)
05.06.2012 15:39 14,1 C 57 % 0,0 l/m 2,4 km/h (1 Bft) S-SO 157 5,7 C 16,4 C 6,8 km/h (2 Bft)
05.06.2012 15:44 15,8 C 56 % 0,0 l/m 2,9 km/h (1 Bft) SO 135 7,0 C 16,7 C 4,7 km/h (1 Bft)
05.06.2012 15:49 16,1 C 52 % 0,0 l/m 2,9 km/h (1 Bft) S-SW 202 6,2 C 18,0 C 4,5 km/h (1 Bft)
05.06.2012 15:54 15,2 C 55 % 0,0 l/m 2,1 km/h (1 Bft) NW 315 6,2 C 19,0 C 5,0 km/h (1 Bft)
05.06.2012 15:59 13,9 C 55 % 0,0 l/m 3,4 km/h (1 Bft) W-NW 292 5,0 C 17,9 C 3,5 km/h (1 Bft)
05.06.2012 16:04 13,9 C 55 % 0,0 l/m 3,5 km/h (1 Bft) N 360 5,0 C 16,7 C 3,4 km/h (1 Bft)
05.06.2012 16:09 14,1 C 57 % 0,0 l/m 2,4 km/h (1 Bft) S 180 5,7 C 16,6 C 2,7 km/h (1 Bft)
05.06.2012 16:14 13,5 C 56 % 0,0 l/m 2,7 km/h (1 Bft) S 180 4,9 C 16,1 C 3,9 km/h (1 Bft)
05.06.2012 16:19 13,4 C 57 % 0,0 l/m 4,0 km/h (1 Bft) S-SW 202 5,1 C 15,2 C 6,6 km/h (2 Bft)
05.06.2012 16:24 14,7 C 57 % 0,0 l/m 3,5 km/h (1 Bft) O 90 6,3 C 15,1 C 0,0 km/h (0 Bft)
05.06.2012 16:29 14,9 C 55 % 0,0 l/m 2,1 km/h (1 Bft) SO 135 5,9 C 17,0 C 1,9 km/h (1 Bft)
05.06.2012 16:34 15,3 C 52 % 0,0 l/m 2,6 km/h (1 Bft) O-NO 67 5,5 C 18,7 C 5,8 km/h (2 Bft)
05.06.2012 16:39 15,4 C 54 % 0,0 l/m 3,4 km/h (1 Bft) SO 135 6,1 C 19,0 C 5,1 km/h (1 Bft)
05.06.2012 16:44 14,3 C 54 % 0,0 l/m 3,7 km/h (1 Bft) S 180 5,1 C 18,9 C 2,3 km/h (1 Bft)
05.06.2012 16:49 13,7 C 55 % 0,0 l/m 4,2 km/h (1 Bft) S-SW 202 4,8 C 17,6 C 5,1 km/h (1 Bft)
05.06.2012 16:54 13,5 C 56 % 0,0 l/m 4,3 km/h (1 Bft) W-SW 247 4,9 C 16,1 C 4,2 km/h (1 Bft)
05.06.2012 16:59 13,9 C 57 % 0,0 l/m 3,4 km/h (1 Bft) SO 135 5,5 C 16,2 C 3,7 km/h (1 Bft)
05.06.2012 17:04 14,2 C 57 % 0,0 l/m 2,9 km/h (1 Bft) O 90 5,8 C 17,1 C 3,4 km/h (1 Bft)
05.06.2012 17:09 14,1 C 56 % 0,0 l/m 4,5 km/h (1 Bft) S-SW 202 5,5 C 17,4 C 6,8 km/h (2 Bft)
05.06.2012 17:14 14,1 C 59 % 0,0 l/m 5,8 km/h (2 Bft) NW 315 6,2 C 17,9 C 9,0 km/h (2 Bft)
05.06.2012 17:19 13,8 C 57 % 0,0 l/m 5,1 km/h (1 Bft) O 90 5,4 C 18,1 C 6,4 km/h (2 Bft)
05.06.2012 17:24 14,1 C 56 % 0,0 l/m 4,3 km/h (1 Bft) W-SW 247 5,5 C 18,7 C 7,4 km/h (2 Bft)
05.06.2012 17:29 14,2 C 56 % 0,0 l/m 4,0 km/h (1 Bft) W-SW 247 5,6 C 18,9 C 4,8 km/h (1 Bft)
05.06.2012 17:34 14,4 C 56 % 0,0 l/m 4,0 km/h (1 Bft) W-NW 292 5,7 C 19,6 C 6,3 km/h (2 Bft)
05.06.2012 17:39 13,9 C 57 % 0,0 l/m 3,9 km/h (1 Bft) W 270 5,5 C 19,3 C 4,3 km/h (1 Bft)
05.06.2012 17:44 13,4 C 59 % 0,0 l/m 4,5 km/h (1 Bft) W 270 5,6 C 17,7 C 6,0 km/h (2 Bft)
05.06.2012 17:49 13,6 C 61 % 0,0 l/m 3,7 km/h (1 Bft) W-NW 292 6,2 C 16,7 C 2,6 km/h (1 Bft)
05.06.2012 17:54 13,7 C 59 % 0,0 l/m 4,0 km/h (1 Bft) W-NW 292 5,8 C 15,9 C 6,4 km/h (2 Bft)
05.06.2012 17:59 13,4 C 60 % 0,0 l/m 4,7 km/h (1 Bft) W-NW 292 5,8 C 15,8 C 3,9 km/h (1 Bft)
05.06.2012 18:04 13,2 C 61 % 0,0 l/m 4,5 km/h (1 Bft) W-SW 247 5,8 C 15,4 C 8,2 km/h (2 Bft)
05.06.2012 18:09 13,3 C 60 % 0,0 l/m 4,5 km/h (1 Bft) W-SW 247 5,7 C 15,2 C 5,1 km/h (1 Bft)
05.06.2012 18:14 13,7 C 60 % 0,0 l/m 5,1 km/h (1 Bft) W-NW 292 6,1 C 15,8 C 4,5 km/h (1 Bft)
05.06.2012 18:19 13,7 C 58 % 0,0 l/m 5,1 km/h (1 Bft) W-NW 292 5,6 C 16,4 C 7,2 km/h (2 Bft)
05.06.2012 18:24 14,0 C 59 % 0,0 l/m 5,3 km/h (1 Bft) NW 315 6,1 C 17,2 C 5,5 km/h (1 Bft)
05.06.2012 18:29 14,1 C 59 % 0,0 l/m 5,1 km/h (1 Bft) W-NW 292 6,2 C 17,5 C 5,1 km/h (1 Bft)
05.06.2012 18:34 13,8 C 59 % 0,0 l/m 5,0 km/h (1 Bft) N-NW 337 5,9 C 17,6 C 3,4 km/h (1 Bft)
05.06.2012 18:39 13,5 C 59 % 0,0 l/m 5,0 km/h (1 Bft) W 270 5,6 C 17,2 C 7,2 km/h (2 Bft)
05.06.2012 18:44 13,4 C 59 % 0,0 l/m 5,0 km/h (1 Bft) W 270 5,6 C 16,7 C 6,4 km/h (2 Bft)
05.06.2012 18:49 13,4 C 59 % 0,0 l/m 5,1 km/h (1 Bft) N-NW 337 5,6 C 16,4 C 4,0 km/h (1 Bft)
05.06.2012 18:54 13,3 C 59 % 0,0 l/m 4,0 km/h (1 Bft) NW 315 5,5 C 16,9 C 4,0 km/h (1 Bft)
05.06.2012 18:59 13,3 C 59 % 0,0 l/m 4,0 km/h (1 Bft) W 270 5,5 C 17,0 C 8,4 km/h (2 Bft)
05.06.2012 19:04 13,1 C 60 % 0,0 l/m 4,8 km/h (1 Bft) W-NW 292 5,5 C 17,0 C 9,2 km/h (2 Bft)
05.06.2012 19:09 13,1 C 59 % 0,0 l/m 5,0 km/h (1 Bft) W-SW 247 5,3 C 17,0 C 9,7 km/h (2 Bft)
05.06.2012 19:14 13,1 C 59 % 0,0 l/m 4,5 km/h (1 Bft) N-NW 337 5,3 C 17,0 C 3,9 km/h (1 Bft)
05.06.2012 19:19 13,2 C 60 % 0,0 l/m 3,7 km/h (1 Bft) N 360 5,6 C 17,2 C 4,0 km/h (1 Bft)
05.06.2012 19:24 13,1 C 60 % 0,0 l/m 3,4 km/h (1 Bft) W 270 5,5 C 17,1 C 4,3 km/h (1 Bft)
05.06.2012 19:29 13,0 C 63 % 0,0 l/m 2,9 km/h (1 Bft) W-NW 292 6,1 C 17,3 C 4,5 km/h (1 Bft)
05.06.2012 19:34 12,5 C 62 % 0,0 l/m 3,4 km/h (1 Bft) N-NW 337 5,4 C 16,3 C 5,5 km/h (1 Bft)
05.06.2012 19:39 12,7 C 63 % 0,0 l/m 3,4 km/h (1 Bft) W-SW 247 5,8 C 15,9 C 1,8 km/h (1 Bft)
05.06.2012 19:44 12,5 C 64 % 0,0 l/m 2,4 km/h (1 Bft) W-NW 292 5,9 C 16,1 C 3,2 km/h (1 Bft)
05.06.2012 19:49 12,0 C 66 % 0,0 l/m 1,9 km/h (1 Bft) NO 45 5,8 C 15,5 C 1,6 km/h (1 Bft)
05.06.2012 19:54 11,4 C 67 % 0,0 l/m 1,4 km/h (1 Bft) N-NW 337 5,5 C 14,1 C 3,1 km/h (1 Bft)
05.06.2012 19:59 11,3 C 67 % 0,0 l/m 1,6 km/h (1 Bft) N-NW 337 5,4 C 13,2 C 2,3 km/h (1 Bft)
05.06.2012 20:04 11,8 C 67 % 0,0 l/m 2,1 km/h (1 Bft) N-NO 22 5,9 C 13,6 C 1,8 km/h (1 Bft)
05.06.2012 20:09 11,9 C 68 % 0,0 l/m 1,4 km/h (1 Bft) W 270 6,2 C 14,6 C 6,0 km/h (2 Bft)
05.06.2012 20:14 11,9 C 69 % 0,0 l/m 1,0 km/h (0 Bft) NW 315 6,4 C 15,2 C 4,0 km/h (1 Bft)
05.06.2012 20:19 11,9 C 69 % 0,0 l/m 1,6 km/h (1 Bft) W 270 6,4 C 15,3 C 3,4 km/h (1 Bft)
05.06.2012 20:24 11,6 C 70 % 0,0 l/m 1,8 km/h (1 Bft) W-NW 292 6,3 C 15,1 C 2,6 km/h (1 Bft)
05.06.2012 20:29 11,3 C 71 % 0,0 l/m 1,6 km/h (1 Bft) NO 45 6,2 C 14,8 C 0,0 km/h (0 Bft)
05.06.2012 20:34 10,7 C 72 % 0,0 l/m 0,6 km/h (0 Bft) N-NO 22 5,9 C 14,1 C 0,0 km/h (0 Bft)
05.06.2012 20:39 10,6 C 73 % 0,0 l/m 0,3 km/h (0 Bft) NO 45 6,0 C 13,5 C 0,0 km/h (0 Bft)
05.06.2012 20:44 10,3 C 73 % 0,0 l/m 0,5 km/h (0 Bft) N 360 5,7 C 12,7 C 2,4 km/h (1 Bft)
05.06.2012 20:49 10,1 C 74 % 0,0 l/m 0,8 km/h (0 Bft) NO 45 5,7 C 11,9 C 0,0 km/h (0 Bft)
05.06.2012 20:54 9,9 C 75 % 0,0 l/m 0,6 km/h (0 Bft) NO 45 5,7 C 10,8 C 0,0 km/h (0 Bft)
05.06.2012 20:59 9,8 C 75 % 0,0 l/m 0,3 km/h (0 Bft) NO 45 5,6 C 10,2 C 1,8 km/h (1 Bft)
05.06.2012 21:04 9,4 C 77 % 0,0 l/m 0,2 km/h (0 Bft) N-NO 22 5,6 C 9,6 C 0,0 km/h (0 Bft)
05.06.2012 21:09 9,1 C 78 % 0,0 l/m 0,3 km/h (0 Bft) N-NO 22 5,5 C 9,1 C 0,0 km/h (0 Bft)
05.06.2012 21:14 9,1 C 78 % 0,0 l/m 0,3 km/h (0 Bft) O 90 5,5 C 8,7 C 0,0 km/h (0 Bft)
05.06.2012 21:19 8,8 C 79 % 0,0 l/m 0,0 km/h (0 Bft) NO 45 5,4 C 8,4 C 0,0 km/h (0 Bft)
05.06.2012 21:24 8,2 C 80 % 0,0 l/m 0,0 km/h (0 Bft) NO 45 5,0 C 7,9 C 0,0 km/h (0 Bft)
05.06.2012 21:29 8,1 C 80 % 0,0 l/m 0,0 km/h (0 Bft) NO 45 4,9 C 7,6 C 0,0 km/h (0 Bft)
05.06.2012 21:34 7,8 C 81 % 0,0 l/m 0,0 km/h (0 Bft) N-NO 22 4,7 C 7,2 C 0,0 km/h (0 Bft)
05.06.2012 21:39 7,7 C 81 % 0,0 l/m 0,0 km/h (0 Bft) NO 45 4,7 C 7,0 C 0,0 km/h (0 Bft)
05.06.2012 21:44 7,4 C 82 % 0,0 l/m 0,0 km/h (0 Bft) NO 45 4,5 C 6,8 C 1,6 km/h (1 Bft)
05.06.2012 21:49 7,4 C 83 % 0,0 l/m 0,0 km/h (0 Bft) NO 45 4,7 C 6,6 C 0,0 km/h (0 Bft)
05.06.2012 21:54 7,4 C 83 % 0,0 l/m 0,0 km/h (0 Bft) NO 45 4,7 C 6,5 C 0,0 km/h (0 Bft)
05.06.2012 21:59 6,9 C 83 % 0,0 l/m 0,0 km/h (0 Bft) O-SO 112 4,2 C 6,3 C 0,0 km/h (0 Bft)
05.06.2012 22:04 6,6 C 83 % 0,0 l/m 0,0 km/h (0 Bft) SO 135 3,9 C 6,0 C 0,0 km/h (0 Bft)
05.06.2012 22:09 6,4 C 84 % 0,0 l/m 0,0 km/h (0 Bft) O-SO 112 3,9 C 5,8 C 0,0 km/h (0 Bft)
05.06.2012 22:14 6,6 C 85 % 0,0 l/m 0,0 km/h (0 Bft) NO 45 4,3 C 5,7 C 0,0 km/h (0 Bft)
05.06.2012 22:19 6,2 C 85 % 0,0 l/m 0,0 km/h (0 Bft) NO 45 3,9 C 5,6 C 0,0 km/h (0 Bft)
05.06.2012 22:24 6,0 C 85 % 0,0 l/m 0,0 km/h (0 Bft) N-NO 22 3,7 C 5,4 C 0,0 km/h (0 Bft)
05.06.2012 22:29 6,1 C 85 % 0,0 l/m 0,0 km/h (0 Bft) N-NO 22 3,8 C 5,3 C 0,0 km/h (0 Bft)
05.06.2012 22:34 6,4 C 86 % 0,0 l/m 0,0 km/h (0 Bft) N 360 4,2 C 5,5 C 0,0 km/h (0 Bft)
05.06.2012 22:39 6,0 C 86 % 0,0 l/m 0,0 km/h (0 Bft) S 180 3,8 C 5,5 C 0,0 km/h (0 Bft)
05.06.2012 22:44 6,0 C 87 % 0,0 l/m 0,0 km/h (0 Bft) NW 315 4,0 C 5,4 C 0,0 km/h (0 Bft)
05.06.2012 22:49 6,0 C 87 % 0,0 l/m 0,0 km/h (0 Bft) NO 45 4,0 C 5,4 C 0,0 km/h (0 Bft)
05.06.2012 22:54 6,3 C 87 % 0,0 l/m 0,0 km/h (0 Bft) N 360 4,3 C 5,3 C 0,0 km/h (0 Bft)
05.06.2012 22:59 6,1 C 87 % 0,0 l/m 0,0 km/h (0 Bft) NO 45 4,1 C 5,4 C 2,6 km/h (1 Bft)
05.06.2012 23:04 6,1 C 88 % 0,0 l/m 0,2 km/h (0 Bft) O-NO 67 4,3 C 5,5 C 0,0 km/h (0 Bft)
05.06.2012 23:09 6,2 C 88 % 0,0 l/m 0,2 km/h (0 Bft) N 360 4,4 C 5,5 C 0,0 km/h (0 Bft)
05.06.2012 23:14 6,0 C 88 % 0,0 l/m 0,0 km/h (0 Bft) NW 315 4,2 C 5,3 C 0,0 km/h (0 Bft)
05.06.2012 23:19 5,9 C 89 % 0,0 l/m 0,0 km/h (0 Bft) N-NO 22 4,2 C 5,3 C 0,0 km/h (0 Bft)
05.06.2012 23:24 6,2 C 89 % 0,0 l/m 0,0 km/h (0 Bft) N 360 4,5 C 5,3 C 0,0 km/h (0 Bft)
05.06.2012 23:29 6,0 C 89 % 0,0 l/m 0,0 km/h (0 Bft) S 180 4,3 C 5,3 C 0,0 km/h (0 Bft)
05.06.2012 23:34 5,7 C 89 % 0,0 l/m 0,6 km/h (0 Bft) S-SO 157 4,0 C 5,4 C 0,0 km/h (0 Bft)
05.06.2012 23:39 5,6 C 89 % 0,0 l/m 0,6 km/h (0 Bft) S-SW 202 3,9 C 5,3 C 0,0 km/h (0 Bft)
05.06.2012 23:44 5,8 C 89 % 0,0 l/m 0,0 km/h (0 Bft) N-NW 337 4,1 C 5,4 C 0,0 km/h (0 Bft)
05.06.2012 23:49 6,0 C 89 % 0,0 l/m 0,0 km/h (0 Bft) N-NW 337 4,3 C 5,4 C 1,6 km/h (1 Bft)
05.06.2012 23:54 6,0 C 89 % 0,0 l/m 0,0 km/h (0 Bft) W-SW 247 4,3 C 5,7 C 0,0 km/h (0 Bft)
05.06.2012 23:59 6,1 C 89 % 0,0 l/m 0,0 km/h (0 Bft) NO 45 4,4 C 5,7 C 0,0 km/h (0 Bft)
_ Min-Zeit 08:44 16:34 - 23:59 - - 22:24 05:59 23:59
Minimum _ 5,5 C 52 % - 0,0 km/h (0 Bft) - - 3,7 C 1,5 C 0,0 km/h (0 Bft)
_ Max-Zeit 15:49 07:49 06:24 05:59 - - 13:34 17:34 00:50
Maximum _ 16,1 C 93 % 0,7 l/m 10,8 km/h
S-SW (2 Bft)
- - 7,8 C 19,6 C 21,1 km/h
O (4 Bft)
Durchschnitt _ 9,8 C 77 % #8,2 l/m 3,9 km/h (1 Bft) O-SO - 5,7 C 10,2 C 5,0 km/h (1 Bft)